Terminal Aerodrome Forecast
Issued by NWS

Home | Current Version | Previous Version | Text Only | Print | Product List | Glossary On
Versions: 1 2 3 4 5 6 7 8 9 10 11 12 13 14 15 16 17
000
FTUS46 KPDT 272321
TAFRDM
TAF
KRDM 272321Z 2800/2824 31015KT P6SM SCT050 BKN070
     FM280300 20006KT P6SM SCT070 SCT200
     FM281600 16004KT P6SM SCT070 OVC140
     FM282100 25008KT P6SM BKN060 OVC090=

USA.gov is the U.S. government's official web portal to all federal, state and local government web resources and services.